Mount Holly, New Jersey
Current Conditions -  °F | °C
As of 4:54 AM on Wednesday 26 Nov 2014 (Local Time) from KVAY Reporting Station
Light Rain Light Rain  
Wind Chill:   Ceiling: 8000
Heat Index:   Visibility: 10mi
Dew Point:   Wind: 7mph
Humidity: 59%   Direction: 20°NNE
Pressure: 30.08"   Gusts: NA
Location:  39.99°N, 74.79°W
Report Text: KVAY 260954Z AUTO 02006KT 10SM -RA OVC080 08/01 A3008 RMK AO2 RAB52 SLP185 P0000 T00830006
Loading
Personal Weather Stations






























Interactive Weather Map New forecast layout! Learn more

10-Day Weather Forecast

Advertisements
Track Severe Weather on mobile